createdAt,value
2016-12-01T00:00:04.649Z,938.1
2016-12-01T00:00:32.335Z,938.13
2016-12-01T00:01:00.050Z,938.16
2016-12-01T00:01:27.737Z,938.19
2016-12-01T00:01:55.457Z,938.1
2016-12-01T00:02:23.143Z,938.15
2016-12-01T00:02:50.863Z,938.16
2016-12-01T00:03:18.574Z,938.15
2016-12-01T00:03:46.289Z,938.19
2016-12-01T00:04:13.977Z,938.16
2016-12-01T00:04:41.650Z,938.16
2016-12-01T00:05:09.432Z,938.26
2016-12-01T00:05:37.137Z,938.24
2016-12-01T00:06:04.808Z,938.24
2016-12-01T00:06:32.480Z,938.2
2016-12-01T00:07:00.231Z,938.25
2016-12-01T00:07:27.921Z,938.21
2016-12-01T00:07:55.618Z,938.28
2016-12-01T00:08:23.351Z,938.19
2016-12-01T00:08:51.060Z,938.26
2016-12-01T00:09:18.941Z,938.35
2016-12-01T00:09:46.639Z,938.32
2016-12-01T00:10:14.431Z,938.36
2016-12-01T00:10:42.151Z,938.35
2016-12-01T00:11:09.853Z,938.4
2016-12-01T00:11:37.522Z,938.34
2016-12-01T00:12:05.190Z,938.43
2016-12-01T00:12:32.875Z,938.38
2016-12-01T00:13:00.538Z,938.4
2016-12-01T00:13:28.339Z,938.39
2016-12-01T00:13:56.023Z,938.38
2016-12-01T00:14:23.727Z,938.44
2016-12-01T00:14:51.435Z,938.42
2016-12-01T00:15:19.125Z,938.43
2016-12-01T00:15:46.907Z,938.44
2016-12-01T00:16:14.622Z,938.41
2016-12-01T00:16:42.334Z,938.48
2016-12-01T00:17:10.038Z,938.47
2016-12-01T00:17:37.902Z,938.48
2016-12-01T00:18:05.733Z,938.47
2016-12-01T00:18:33.520Z,938.47
2016-12-01T00:19:01.192Z,938.48
2016-12-01T00:19:28.904Z,938.43
2016-12-01T00:19:56.601Z,938.47
2016-12-01T00:20:24.286Z,938.43
2016-12-01T00:20:51.972Z,938.48
2016-12-01T00:21:19.678Z,938.45
2016-12-01T00:21:47.378Z,938.38
2016-12-01T00:22:15.066Z,938.39
2016-12-01T00:22:42.806Z,938.47
2016-12-01T00:23:10.498Z,938.48
2016-12-01T00:23:38.219Z,938.49
2016-12-01T00:24:06.018Z,938.52
2016-12-01T00:24:33.708Z,938.5
2016-12-01T00:25:01.415Z,938.44
2016-12-01T00:25:29.146Z,938.55
2016-12-01T00:25:56.853Z,938.5
2016-12-01T00:26:24.576Z,938.51
2016-12-01T00:26:52.251Z,938.46
2016-12-01T00:27:19.940Z,938.49
2016-12-01T00:27:47.607Z,938.49
2016-12-01T00:28:15.403Z,938.57
2016-12-01T00:28:43.080Z,938.51
2016-12-01T00:29:10.757Z,938.52
2016-12-01T00:29:38.451Z,938.51
2016-12-01T00:30:06.225Z,938.52
2016-12-01T00:30:33.942Z,938.51
2016-12-01T00:31:01.624Z,938.5
2016-12-01T00:31:29.322Z,938.49
2016-12-01T00:31:57.003Z,938.55
2016-12-01T00:32:24.789Z,938.52
2016-12-01T00:32:52.699Z,938.56
2016-12-01T00:33:20.390Z,938.53
2016-12-01T00:33:48.082Z,938.52
2016-12-01T00:34:15.782Z,938.62
2016-12-01T00:34:43.563Z,938.51
2016-12-01T00:35:11.247Z,938.49
2016-12-01T00:35:38.939Z,938.58
2016-12-01T00:36:06.609Z,938.53
2016-12-01T00:36:34.276Z,938.57
2016-12-01T00:37:02.086Z,938.56
2016-12-01T00:37:29.773Z,938.55
2016-12-01T00:37:57.471Z,938.58
2016-12-01T00:38:25.161Z,938.52
2016-12-01T00:38:52.865Z,938.58
2016-12-01T00:39:20.533Z,938.6
2016-12-01T00:39:48.242Z,938.53
2016-12-01T00:40:15.943Z,938.59
2016-12-01T00:40:43.683Z,938.54
2016-12-01T00:41:11.387Z,938.61
2016-12-01T00:41:39.065Z,938.58
2016-12-01T00:42:06.831Z,938.54
2016-12-01T00:42:34.624Z,938.57
2016-12-01T00:43:02.284Z,938.58
2016-12-01T00:43:29.994Z,938.58
2016-12-01T00:43:57.786Z,938.57
2016-12-01T00:44:25.473Z,938.58
2016-12-01T00:44:53.195Z,938.58
2016-12-01T00:45:20.880Z,938.59
2016-12-01T00:45:48.556Z,938.57
2016-12-01T00:46:16.259Z,938.6
2016-12-01T00:46:43.919Z,938.6
2016-12-01T00:47:11.636Z,938.64
2016-12-01T00:47:39.413Z,938.57
2016-12-01T00:48:07.125Z,938.62
2016-12-01T00:48:34.817Z,938.7
2016-12-01T00:49:02.622Z,938.66
2016-12-01T00:49:30.281Z,938.65
2016-12-01T00:49:57.950Z,938.67
2016-12-01T00:50:25.671Z,938.71
2016-12-01T00:50:53.347Z,938.69
2016-12-01T00:51:21.070Z,938.65
2016-12-01T00:51:48.748Z,938.67
2016-12-01T00:52:16.436Z,938.67
2016-12-01T00:52:44.123Z,938.66
2016-12-01T00:53:11.924Z,938.69
2016-12-01T00:53:39.587Z,938.65
2016-12-01T00:54:07.390Z,938.62
2016-12-01T00:54:35.111Z,938.66
2016-12-01T00:55:02.885Z,938.69
2016-12-01T00:55:30.576Z,938.66
2016-12-01T00:55:58.280Z,938.67
2016-12-01T00:56:25.979Z,938.67
2016-12-01T00:56:53.707Z,938.65
2016-12-01T00:57:21.399Z,938.72
2016-12-01T00:57:49.082Z,938.74
2016-12-01T00:58:16.866Z,938.7
2016-12-01T00:58:44.535Z,938.73
2016-12-01T00:59:12.213Z,938.65
2016-12-01T00:59:39.901Z,938.77
2016-12-01T01:00:07.693Z,938.75
2016-12-01T01:00:35.383Z,938.71
2016-12-01T01:01:03.063Z,938.75
2016-12-01T01:01:30.867Z,938.76
2016-12-01T01:01:58.552Z,938.75
2016-12-01T01:02:26.239Z,938.77
2016-12-01T01:02:53.955Z,938.79
2016-12-01T01:03:21.647Z,938.72
2016-12-01T01:03:49.370Z,938.8
2016-12-01T01:04:17.088Z,938.75
2016-12-01T01:04:44.788Z,938.78
2016-12-01T01:05:12.504Z,938.75
2016-12-01T01:05:40.270Z,938.81
2016-12-01T01:06:07.928Z,938.78
2016-12-01T01:06:35.659Z,938.77
2016-12-01T01:07:03.373Z,938.77
2016-12-01T01:07:31.095Z,938.75
2016-12-01T01:07:58.824Z,938.76
2016-12-01T01:08:26.621Z,938.79
2016-12-01T01:08:54.419Z,938.74
2016-12-01T01:09:22.227Z,938.74
2016-12-01T01:09:49.931Z,938.75
2016-12-01T01:10:17.609Z,938.81
2016-12-01T01:10:45.321Z,938.72
2016-12-01T01:11:13.112Z,938.79
2016-12-01T01:11:40.832Z,938.83
2016-12-01T01:12:08.507Z,938.72
2016-12-01T01:12:36.171Z,938.72
2016-12-01T01:13:03.872Z,938.74
2016-12-01T01:13:31.671Z,938.73
2016-12-01T01:13:59.372Z,938.78
2016-12-01T01:14:27.050Z,938.79
2016-12-01T01:14:54.723Z,938.74
2016-12-01T01:15:22.394Z,938.73
2016-12-01T01:15:50.072Z,938.83
2016-12-01T01:16:17.754Z,938.76
2016-12-01T01:16:45.429Z,938.79
2016-12-01T01:17:13.126Z,938.72
2016-12-01T01:17:40.796Z,938.73
2016-12-01T01:18:08.495Z,938.77
2016-12-01T01:18:36.184Z,938.81
2016-12-01T01:19:03.897Z,938.75
2016-12-01T01:19:31.657Z,938.75
2016-12-01T01:19:59.340Z,938.67
2016-12-01T01:20:27.109Z,938.75
2016-12-01T01:20:54.784Z,938.79
2016-12-01T01:21:22.470Z,938.68
2016-12-01T01:21:50.132Z,938.72
2016-12-01T01:22:17.826Z,938.76
2016-12-01T01:22:45.535Z,938.72
2016-12-01T01:23:13.231Z,938.73
2016-12-01T01:23:40.913Z,938.66
2016-12-01T01:24:08.609Z,938.68
2016-12-01T01:24:36.346Z,938.67
2016-12-01T01:25:04.050Z,938.69
2016-12-01T01:25:31.779Z,938.67
2016-12-01T01:25:59.487Z,938.73
2016-12-01T01:26:27.198Z,938.7
2016-12-01T01:26:54.882Z,938.71
2016-12-01T01:27:22.599Z,938.7
2016-12-01T01:27:50.322Z,938.72
2016-12-01T01:28:17.999Z,938.69
2016-12-01T01:28:45.851Z,938.71
2016-12-01T01:29:13.573Z,938.72
2016-12-01T01:29:41.283Z,938.68
2016-12-01T01:30:08.946Z,938.66
2016-12-01T01:30:36.617Z,938.7
2016-12-01T01:31:04.336Z,938.74
2016-12-01T01:31:32.135Z,938.72
2016-12-01T01:31:59.827Z,938.73
2016-12-01T01:32:27.509Z,938.72
2016-12-01T01:32:55.213Z,938.7
2016-12-01T01:33:22.903Z,938.66
2016-12-01T01:33:50.597Z,938.72
2016-12-01T01:34:18.287Z,938.66
2016-12-01T01:34:45.976Z,938.64
2016-12-01T01:35:13.666Z,938.65
2016-12-01T01:35:41.340Z,938.63
2016-12-01T01:36:09.030Z,938.66
2016-12-01T01:36:36.723Z,938.61
2016-12-01T01:37:04.418Z,938.64
2016-12-01T01:37:32.111Z,938.64
2016-12-01T01:37:59.836Z,938.55
2016-12-01T01:38:27.549Z,938.58
2016-12-01T01:38:55.238Z,938.66
2016-12-01T01:39:22.917Z,938.59
2016-12-01T01:39:50.608Z,938.64
2016-12-01T01:40:18.325Z,938.57
2016-12-01T01:40:46.012Z,938.64
2016-12-01T01:41:13.709Z,938.65
2016-12-01T01:41:41.399Z,938.64
2016-12-01T01:42:09.077Z,938.65
2016-12-01T01:42:36.770Z,938.62
2016-12-01T01:43:04.450Z,938.63
2016-12-01T01:43:32.225Z,938.6
2016-12-01T01:43:59.924Z,938.58
2016-12-01T01:44:27.612Z,938.6
2016-12-01T01:44:55.308Z,938.59
2016-12-01T01:45:23.011Z,938.59
2016-12-01T01:45:50.692Z,938.6
2016-12-01T01:46:18.408Z,938.6
2016-12-01T01:46:46.081Z,938.63
2016-12-01T01:47:13.882Z,938.64
2016-12-01T01:47:41.589Z,938.69
2016-12-01T01:48:09.295Z,938.65
2016-12-01T01:48:36.980Z,938.65
2016-12-01T01:49:04.777Z,938.66
2016-12-01T01:49:32.569Z,938.65
2016-12-01T01:50:00.271Z,938.58
2016-12-01T01:50:27.961Z,938.62
2016-12-01T01:50:55.659Z,938.6
2016-12-01T01:51:23.384Z,938.66
2016-12-01T01:51:51.156Z,938.71
2016-12-01T01:52:18.847Z,938.67
2016-12-01T01:52:46.630Z,938.65
2016-12-01T01:53:14.343Z,938.64
2016-12-01T01:53:42.025Z,938.57
2016-12-01T01:54:09.707Z,938.63
2016-12-01T01:54:37.383Z,938.66
2016-12-01T01:55:05.093Z,938.63
2016-12-01T01:55:32.788Z,938.69
2016-12-01T01:56:00.465Z,938.62
2016-12-01T01:56:28.165Z,938.63
2016-12-01T01:56:55.868Z,938.64
2016-12-01T01:57:23.563Z,938.6
2016-12-01T01:57:51.267Z,938.64
2016-12-01T01:58:18.953Z,938.65
2016-12-01T01:58:46.653Z,938.62
2016-12-01T01:59:14.352Z,938.63
2016-12-01T01:59:42.064Z,938.63
2016-12-01T02:00:09.762Z,938.62
2016-12-01T02:00:37.441Z,938.59
2016-12-01T02:01:05.139Z,938.6
2016-12-01T02:01:32.844Z,938.63
2016-12-01T02:02:00.513Z,938.6
2016-12-01T02:02:28.199Z,938.56
2016-12-01T02:02:55.898Z,938.57
2016-12-01T02:03:23.592Z,938.62
2016-12-01T02:03:51.288Z,938.6
2016-12-01T02:04:18.971Z,938.59
2016-12-01T02:04:46.818Z,938.59
2016-12-01T02:05:14.536Z,938.56
2016-12-01T02:05:42.345Z,938.58
2016-12-01T02:06:10.027Z,938.6
2016-12-01T02:06:37.717Z,938.56
2016-12-01T02:07:05.405Z,938.61
2016-12-01T02:07:33.115Z,938.56
2016-12-01T02:08:00.813Z,938.6
2016-12-01T02:08:28.552Z,938.56
2016-12-01T02:08:56.321Z,938.55
2016-12-01T02:09:24.021Z,938.59
2016-12-01T02:09:51.751Z,938.6
2016-12-01T02:10:19.435Z,938.59
2016-12-01T02:10:47.251Z,938.58
2016-12-01T02:11:14.960Z,938.54
2016-12-01T02:11:42.643Z,938.52
2016-12-01T02:12:10.337Z,938.55
2016-12-01T02:12:38.014Z,938.54
2016-12-01T02:13:05.729Z,938.55
2016-12-01T02:13:33.404Z,938.5
2016-12-01T02:14:01.104Z,938.48
2016-12-01T02:14:28.813Z,938.52
2016-12-01T02:14:56.616Z,938.52
2016-12-01T02:15:24.306Z,938.5
2016-12-01T02:15:51.999Z,938.46
2016-12-01T02:16:19.689Z,938.46
2016-12-01T02:16:47.379Z,938.45
2016-12-01T02:17:15.098Z,938.38
2016-12-01T02:17:42.771Z,938.43
2016-12-01T02:18:10.434Z,938.43
2016-12-01T02:18:38.188Z,938.37
2016-12-01T02:19:05.865Z,938.4
2016-12-01T02:19:33.667Z,938.36
2016-12-01T02:20:01.368Z,938.34
2016-12-01T02:20:29.064Z,938.39
2016-12-01T02:20:56.746Z,938.29
2016-12-01T02:21:24.427Z,938.31
2016-12-01T02:21:52.158Z,938.3
2016-12-01T02:22:19.874Z,938.34
2016-12-01T02:22:47.635Z,938.35
2016-12-01T02:23:15.306Z,938.34
2016-12-01T02:23:43.387Z,938.28
2016-12-01T02:24:11.184Z,938.37
2016-12-01T02:24:38.948Z,938.33
2016-12-01T02:25:06.659Z,938.33
2016-12-01T02:25:34.340Z,938.37
2016-12-01T02:26:02.025Z,938.27
2016-12-01T02:26:29.733Z,938.28
2016-12-01T02:26:57.501Z,938.29
2016-12-01T02:27:25.207Z,938.33
2016-12-01T02:27:52.855Z,938.3
2016-12-01T02:28:20.574Z,938.3
2016-12-01T02:28:48.551Z,938.29
2016-12-01T02:29:16.241Z,938.33
2016-12-01T02:29:43.915Z,938.34
2016-12-01T02:30:11.624Z,938.34
2016-12-01T02:30:39.308Z,938.36
2016-12-01T02:31:07.206Z,938.36
2016-12-01T02:31:34.900Z,938.36
2016-12-01T02:32:02.589Z,938.36
2016-12-01T02:32:30.285Z,938.35
2016-12-01T02:32:57.964Z,938.35
2016-12-01T02:33:25.646Z,938.33
2016-12-01T02:33:53.335Z,938.35
2016-12-01T02:34:21.040Z,938.38
2016-12-01T02:34:48.800Z,938.36
2016-12-01T02:35:16.612Z,938.37
2016-12-01T02:35:44.279Z,938.37
2016-12-01T02:36:11.972Z,938.37
2016-12-01T02:36:39.658Z,938.36
2016-12-01T02:37:07.350Z,938.37
2016-12-01T02:37:35.035Z,938.3
2016-12-01T02:38:02.745Z,938.3
2016-12-01T02:38:30.423Z,938.31
2016-12-01T02:38:58.116Z,938.29
2016-12-01T02:39:25.795Z,938.3
2016-12-01T02:39:53.487Z,938.29
2016-12-01T02:40:21.290Z,938.24
2016-12-01T02:40:48.991Z,938.27
2016-12-01T02:41:16.682Z,938.26
2016-12-01T02:41:44.349Z,938.26
2016-12-01T02:42:12.046Z,938.31
2016-12-01T02:42:39.783Z,938.26
2016-12-01T02:43:07.452Z,938.24
2016-12-01T02:43:35.145Z,938.27
2016-12-01T02:44:02.828Z,938.27
2016-12-01T02:44:30.505Z,938.25
2016-12-01T02:44:58.195Z,938.24
2016-12-01T02:45:25.892Z,938.23
2016-12-01T02:45:53.595Z,938.25
2016-12-01T02:46:21.375Z,938.23
2016-12-01T02:46:49.117Z,938.18
2016-12-01T02:47:16.872Z,938.25
2016-12-01T02:47:44.543Z,938.17
2016-12-01T02:48:12.209Z,938.2
2016-12-01T02:48:39.873Z,938.18
2016-12-01T02:49:07.552Z,938.17
2016-12-01T02:49:35.243Z,938.15
2016-12-01T02:50:03.040Z,938.12
2016-12-01T02:50:30.832Z,938.1
2016-12-01T02:50:58.601Z,938.16
2016-12-01T02:51:26.304Z,938.03
2016-12-01T02:51:53.979Z,938.13
2016-12-01T02:52:21.722Z,938.15
2016-12-01T02:52:49.401Z,938.08
2016-12-01T02:53:17.059Z,938.16
2016-12-01T02:53:44.762Z,938.21
2016-12-01T02:54:12.472Z,938.15
2016-12-01T02:54:40.362Z,938.04
2016-12-01T02:55:08.055Z,938.1
2016-12-01T02:55:35.752Z,938.07
2016-12-01T02:56:03.457Z,938.11
2016-12-01T02:56:31.164Z,938.17
2016-12-01T02:56:58.855Z,938.13
2016-12-01T02:57:26.583Z,938.06
2016-12-01T02:57:54.316Z,938.09
2016-12-01T02:58:22.036Z,938.11
2016-12-01T02:58:49.839Z,938.11
2016-12-01T02:59:17.526Z,938.09
2016-12-01T02:59:45.203Z,938.08
2016-12-01T03:00:12.989Z,938.04
2016-12-01T03:00:41.800Z,938.01
2016-12-01T03:01:09.498Z,938.02
2016-12-01T03:01:37.167Z,938.04
2016-12-01T03:02:04.860Z,938.04
2016-12-01T03:02:32.658Z,938.01
2016-12-01T03:03:00.527Z,938.02
2016-12-01T03:03:28.248Z,938
2016-12-01T03:03:56.066Z,937.98
2016-12-01T03:04:23.744Z,937.97
2016-12-01T03:04:51.421Z,937.89
2016-12-01T03:05:19.127Z,937.96
2016-12-01T03:05:46.950Z,937.89
2016-12-01T03:06:14.699Z,937.95
2016-12-01T03:06:42.393Z,937.98
2016-12-01T03:07:10.100Z,937.94
2016-12-01T03:07:37.862Z,937.98
2016-12-01T03:08:05.545Z,937.95
2016-12-01T03:08:33.244Z,937.94
2016-12-01T03:09:00.917Z,937.96
2016-12-01T03:09:28.683Z,937.98
2016-12-01T03:09:56.383Z,937.85
2016-12-01T03:10:24.070Z,937.93
2016-12-01T03:10:51.752Z,937.93
2016-12-01T03:11:19.451Z,937.87
2016-12-01T03:11:47.121Z,937.9
2016-12-01T03:12:14.902Z,937.86
2016-12-01T03:12:42.577Z,937.89
2016-12-01T03:13:10.292Z,937.88
2016-12-01T03:13:37.983Z,937.84
2016-12-01T03:14:05.672Z,937.81
2016-12-01T03:14:33.376Z,937.84
2016-12-01T03:15:01.053Z,937.78
2016-12-01T03:15:28.864Z,937.78
2016-12-01T03:15:56.561Z,937.8
2016-12-01T03:16:24.277Z,937.81
2016-12-01T03:16:51.940Z,937.73
2016-12-01T03:17:19.717Z,937.79
2016-12-01T03:17:47.422Z,937.73
2016-12-01T03:18:15.204Z,937.74
2016-12-01T03:18:42.997Z,937.76
2016-12-01T03:19:10.696Z,937.73
2016-12-01T03:19:38.378Z,937.69
2016-12-01T03:20:06.090Z,937.67
2016-12-01T03:20:33.896Z,937.63
2016-12-01T03:21:01.671Z,937.6
2016-12-01T03:21:29.367Z,937.64
2016-12-01T03:21:57.114Z,937.64
2016-12-01T03:22:24.786Z,937.62
2016-12-01T03:22:52.484Z,937.63
2016-12-01T03:23:20.159Z,937.59
2016-12-01T03:23:47.858Z,937.59
2016-12-01T03:24:15.530Z,937.54
2016-12-01T03:24:43.244Z,937.52
2016-12-01T03:25:10.912Z,937.53
2016-12-01T03:25:38.614Z,937.51
2016-12-01T03:26:06.280Z,937.57
2016-12-01T03:26:33.947Z,937.49
2016-12-01T03:27:01.607Z,937.51
2016-12-01T03:27:29.308Z,937.5
2016-12-01T03:27:56.993Z,937.56
2016-12-01T03:28:24.747Z,937.48
2016-12-01T03:28:52.447Z,937.45
2016-12-01T03:29:20.121Z,937.51
2016-12-01T03:29:47.789Z,937.36
2016-12-01T03:30:15.571Z,937.44
2016-12-01T03:30:43.267Z,937.46
2016-12-01T03:31:11.055Z,937.45
2016-12-01T03:31:38.762Z,937.42
2016-12-01T03:32:06.489Z,937.38
2016-12-01T03:32:34.192Z,937.42
2016-12-01T03:33:01.981Z,937.42
2016-12-01T03:33:29.669Z,937.42
2016-12-01T03:33:57.368Z,937.38
2016-12-01T03:34:25.081Z,937.4
2016-12-01T03:34:52.793Z,937.47
2016-12-01T03:35:20.506Z,937.39
2016-12-01T03:35:48.216Z,937.33
2016-12-01T03:36:15.991Z,937.45
2016-12-01T03:36:43.662Z,937.42
2016-12-01T03:37:11.343Z,937.38
2016-12-01T03:37:38.999Z,937.36
2016-12-01T03:38:06.694Z,937.4
2016-12-01T03:38:34.388Z,937.39
2016-12-01T03:39:02.066Z,937.39
2016-12-01T03:39:29.739Z,937.4
2016-12-01T03:39:57.408Z,937.41
2016-12-01T03:40:25.196Z,937.42
2016-12-01T03:40:52.848Z,937.37
2016-12-01T03:41:20.525Z,937.36
2016-12-01T03:41:48.228Z,937.37
2016-12-01T03:42:15.910Z,937.37
2016-12-01T03:42:43.596Z,937.38
2016-12-01T03:43:11.282Z,937.36
2016-12-01T03:43:38.965Z,937.38
2016-12-01T03:44:06.655Z,937.35
2016-12-01T03:44:34.360Z,937.34
2016-12-01T03:45:02.039Z,937.35
2016-12-01T03:45:29.833Z,937.39
2016-12-01T03:45:57.657Z,937.35
2016-12-01T03:46:25.363Z,937.34
2016-12-01T03:46:53.056Z,937.32
2016-12-01T03:47:20.753Z,937.28
2016-12-01T03:47:48.424Z,937.32
2016-12-01T03:48:16.095Z,937.3
2016-12-01T03:48:43.784Z,937.28
2016-12-01T03:49:11.468Z,937.29
2016-12-01T03:49:39.163Z,937.29
2016-12-01T03:50:06.941Z,937.28
2016-12-01T03:50:34.627Z,937.24
2016-12-01T03:51:02.298Z,937.26
2016-12-01T03:51:30.006Z,937.25
2016-12-01T03:51:57.697Z,937.27
2016-12-01T03:52:25.401Z,937.24
2016-12-01T03:52:53.070Z,937.26
2016-12-01T03:53:20.761Z,937.25
2016-12-01T03:53:48.443Z,937.23
2016-12-01T03:54:16.105Z,937.21
2016-12-01T03:54:43.874Z,937.21
2016-12-01T03:55:11.599Z,937.2
2016-12-01T03:55:39.365Z,937.19
2016-12-01T03:56:07.047Z,937.2
2016-12-01T03:56:34.717Z,937.2
2016-12-01T03:57:02.433Z,937.18
2016-12-01T03:57:30.128Z,937.19
2016-12-01T03:57:57.816Z,937.15
2016-12-01T03:58:25.502Z,937.17
2016-12-01T03:58:53.224Z,937.18
2016-12-01T03:59:20.945Z,937.2
2016-12-01T03:59:48.609Z,937.22
2016-12-01T04:00:16.292Z,937.17
2016-12-01T04:00:43.985Z,937.15
2016-12-01T04:01:11.759Z,937.22
2016-12-01T04:01:39.455Z,937.19
2016-12-01T04:02:07.190Z,937.19
2016-12-01T04:02:34.874Z,937.22
2016-12-01T04:03:02.644Z,937.2
2016-12-01T04:03:30.351Z,937.19
2016-12-01T04:03:58.036Z,937.23
2016-12-01T04:04:25.805Z,937.23
2016-12-01T04:04:53.501Z,937.28
2016-12-01T04:05:21.268Z,937.18
2016-12-01T04:05:48.944Z,937.22
2016-12-01T04:06:16.644Z,937.18
2016-12-01T04:06:44.300Z,937.2
2016-12-01T04:07:11.983Z,937.2
2016-12-01T04:07:39.771Z,937.19
2016-12-01T04:08:07.459Z,937.22
2016-12-01T04:08:35.120Z,937.2
2016-12-01T04:09:02.811Z,937.28
2016-12-01T04:09:30.542Z,937.19
2016-12-01T04:09:58.215Z,937.21
2016-12-01T04:10:25.901Z,937.16
2016-12-01T04:10:53.583Z,937.2
2016-12-01T04:11:21.247Z,937.21
2016-12-01T04:11:48.946Z,937.18
2016-12-01T04:12:16.711Z,937.18
2016-12-01T04:12:44.375Z,937.18
2016-12-01T04:13:12.080Z,937.16
2016-12-01T04:13:39.957Z,937.2
2016-12-01T04:14:07.652Z,937.18
2016-12-01T04:14:35.324Z,937.18
2016-12-01T04:15:03.007Z,937.13
2016-12-01T04:15:30.723Z,937.06
2016-12-01T04:15:58.492Z,937.15
2016-12-01T04:16:26.201Z,937.13
2016-12-01T04:16:53.951Z,937.16
2016-12-01T04:17:21.653Z,937.15
2016-12-01T04:17:49.332Z,937.15
2016-12-01T04:18:17.064Z,937.15
2016-12-01T04:18:44.781Z,937.12
2016-12-01T04:19:12.491Z,937.15
2016-12-01T04:19:40.196Z,937.14
2016-12-01T04:20:07.880Z,937.09
2016-12-01T04:20:35.560Z,937.11
2016-12-01T04:21:03.247Z,937.1
2016-12-01T04:21:30.960Z,937.07
2016-12-01T04:21:58.629Z,937.06
2016-12-01T04:22:26.402Z,937.06
2016-12-01T04:22:54.072Z,937
2016-12-01T04:23:21.746Z,937.02
2016-12-01T04:23:49.466Z,937.04
2016-12-01T04:24:17.143Z,937.07
2016-12-01T04:24:44.838Z,937.06
2016-12-01T04:25:12.540Z,937.06
2016-12-01T04:25:40.206Z,937.06
2016-12-01T04:26:07.885Z,937.02
2016-12-01T04:26:35.577Z,937.04
2016-12-01T04:27:03.268Z,937.05
2016-12-01T04:27:31.074Z,937.06
2016-12-01T04:27:58.793Z,937.03
2016-12-01T04:28:26.484Z,937.01
2016-12-01T04:28:54.187Z,937.01
2016-12-01T04:29:21.876Z,937.06
2016-12-01T04:29:49.565Z,937
2016-12-01T04:30:17.283Z,937
2016-12-01T04:30:44.970Z,937
2016-12-01T04:31:12.649Z,936.99
2016-12-01T04:31:40.318Z,936.94
2016-12-01T04:32:08.018Z,936.96
2016-12-01T04:32:35.735Z,936.91
2016-12-01T04:33:03.435Z,936.88
2016-12-01T04:33:31.137Z,936.97
2016-12-01T04:33:58.823Z,936.93
2016-12-01T04:34:26.499Z,936.88
2016-12-01T04:34:54.212Z,936.9
2016-12-01T04:35:21.976Z,936.89
2016-12-01T04:35:49.663Z,936.89
2016-12-01T04:36:17.451Z,936.87
2016-12-01T04:36:45.120Z,936.85
2016-12-01T04:37:12.853Z,936.85
2016-12-01T04:37:40.556Z,936.83
2016-12-01T04:38:08.249Z,936.84
2016-12-01T04:38:35.934Z,936.79
2016-12-01T04:39:03.630Z,936.79
2016-12-01T04:39:31.320Z,936.82
2016-12-01T04:39:59.045Z,936.86
2016-12-01T04:40:26.754Z,936.78
2016-12-01T04:40:54.433Z,936.86
2016-12-01T04:41:22.135Z,936.84
2016-12-01T04:41:49.851Z,936.76
2016-12-01T04:42:17.547Z,936.85
2016-12-01T04:42:45.231Z,936.81
2016-12-01T04:43:12.940Z,936.77
2016-12-01T04:43:40.624Z,936.81
2016-12-01T04:44:08.334Z,936.81
2016-12-01T04:44:36.030Z,936.8
2016-12-01T04:45:03.724Z,936.79
2016-12-01T04:45:31.504Z,936.8
2016-12-01T04:45:59.191Z,936.75
2016-12-01T04:46:26.904Z,936.81
2016-12-01T04:46:54.607Z,936.77
2016-12-01T04:47:22.282Z,936.76
2016-12-01T04:47:49.998Z,936.75
2016-12-01T04:48:17.709Z,936.76
2016-12-01T04:48:45.443Z,936.79
2016-12-01T04:49:13.119Z,936.75
2016-12-01T04:49:40.871Z,936.74
2016-12-01T04:50:08.650Z,936.74
2016-12-01T04:50:36.356Z,936.54
2016-12-01T04:51:04.162Z,936.79
2016-12-01T04:51:31.863Z,936.68
2016-12-01T04:51:59.540Z,936.72
2016-12-01T04:52:27.264Z,936.71
2016-12-01T04:52:54.981Z,936.7
2016-12-01T04:53:22.672Z,936.71
2016-12-01T04:53:50.370Z,936.67
2016-12-01T04:54:18.047Z,936.66
2016-12-01T04:54:45.756Z,936.67
2016-12-01T04:55:13.469Z,936.68
2016-12-01T04:55:41.154Z,936.66
2016-12-01T04:56:08.856Z,936.69
2016-12-01T04:56:36.551Z,936.7
2016-12-01T04:57:04.262Z,936.64
2016-12-01T04:57:31.933Z,936.65
2016-12-01T04:57:59.639Z,936.62
2016-12-01T04:58:27.318Z,936.61
2016-12-01T04:58:54.990Z,936.62
2016-12-01T04:59:22.790Z,936.66
2016-12-01T04:59:50.457Z,936.65
2016-12-01T05:00:18.228Z,936.59
2016-12-01T05:00:45.963Z,936.57
2016-12-01T05:01:13.648Z,936.59
2016-12-01T05:01:41.321Z,936.59
2016-12-01T05:02:08.997Z,936.58
2016-12-01T05:02:36.694Z,936.5
2016-12-01T05:03:04.383Z,936.56
2016-12-01T05:03:32.179Z,936.5
2016-12-01T05:03:59.989Z,936.54
2016-12-01T05:04:27.689Z,936.52
2016-12-01T05:04:55.365Z,936.54
2016-12-01T05:05:23.056Z,936.48
2016-12-01T05:05:50.843Z,936.58
2016-12-01T05:06:18.548Z,936.42
2016-12-01T05:06:46.251Z,936.49
2016-12-01T05:07:13.938Z,936.5
2016-12-01T05:07:41.622Z,936.47
2016-12-01T05:08:09.309Z,936.47
2016-12-01T05:08:36.974Z,936.42
2016-12-01T05:09:04.662Z,936.43
2016-12-01T05:09:32.341Z,936.45
2016-12-01T05:10:00.023Z,936.41
2016-12-01T05:10:27.713Z,936.43
2016-12-01T05:10:55.401Z,936.39
2016-12-01T05:11:23.102Z,936.45
2016-12-01T05:11:50.768Z,936.43
2016-12-01T05:12:18.450Z,936.4
2016-12-01T05:12:46.122Z,936.4
2016-12-01T05:13:13.822Z,936.45
2016-12-01T05:13:41.724Z,936.44
2016-12-01T05:14:09.423Z,936.43
2016-12-01T05:14:37.078Z,936.48
2016-12-01T05:15:04.737Z,936.48
2016-12-01T05:15:32.414Z,936.5
2016-12-01T05:16:00.304Z,936.48
2016-12-01T05:16:28.111Z,936.46
2016-12-01T05:16:55.807Z,936.48
2016-12-01T05:17:23.494Z,936.46
2016-12-01T05:17:51.264Z,936.44
2016-12-01T05:18:19.064Z,936.45
2016-12-01T05:18:46.768Z,936.39
2016-12-01T05:19:14.450Z,936.49
2016-12-01T05:19:42.120Z,936.47
2016-12-01T05:20:09.829Z,936.45
2016-12-01T05:20:37.510Z,936.42
2016-12-01T05:21:05.194Z,936.4
2016-12-01T05:21:32.878Z,936.42
2016-12-01T05:22:00.569Z,936.46
2016-12-01T05:22:28.249Z,936.37
2016-12-01T05:22:55.964Z,936.43
2016-12-01T05:23:23.649Z,936.41
2016-12-01T05:23:51.326Z,936.43
2016-12-01T05:24:19.021Z,936.39
2016-12-01T05:24:46.708Z,936.4
2016-12-01T05:25:14.385Z,936.41
2016-12-01T05:25:42.098Z,936.4
2016-12-01T05:26:09.816Z,936.34
2016-12-01T05:26:37.501Z,936.38
2016-12-01T05:27:05.200Z,936.37
2016-12-01T05:27:32.890Z,936.41
2016-12-01T05:28:00.612Z,936.42
2016-12-01T05:28:28.317Z,936.4
2016-12-01T05:28:56.021Z,936.38
2016-12-01T05:29:23.695Z,936.4
2016-12-01T05:29:51.556Z,936.4
2016-12-01T05:30:19.345Z,936.37
2016-12-01T05:30:47.034Z,936.34
2016-12-01T05:31:14.725Z,936.38
2016-12-01T05:31:42.392Z,936.35
2016-12-01T05:32:10.169Z,936.37
2016-12-01T05:32:37.934Z,936.45
2016-12-01T05:33:05.743Z,936.43
2016-12-01T05:33:33.438Z,936.41
2016-12-01T05:34:01.118Z,936.44
2016-12-01T05:34:28.810Z,936.45
2016-12-01T05:34:56.606Z,936.42
2016-12-01T05:35:24.381Z,936.43
2016-12-01T05:35:52.071Z,936.42
2016-12-01T05:36:19.750Z,936.44
2016-12-01T05:36:47.451Z,936.44
2016-12-01T05:37:15.171Z,936.45
2016-12-01T05:37:42.843Z,936.44
2016-12-01T05:38:10.638Z,936.46
2016-12-01T05:38:38.428Z,936.5
2016-12-01T05:39:06.202Z,936.44
2016-12-01T05:39:33.890Z,936.42
2016-12-01T05:40:01.583Z,936.44
2016-12-01T05:40:29.272Z,936.47
2016-12-01T05:40:56.984Z,936.44
2016-12-01T05:41:24.751Z,936.46
2016-12-01T05:41:52.423Z,936.43
2016-12-01T05:42:20.093Z,936.42
2016-12-01T05:42:47.792Z,936.42
2016-12-01T05:43:15.504Z,936.43
2016-12-01T05:43:43.218Z,936.41
2016-12-01T05:44:10.900Z,936.45
2016-12-01T05:44:38.629Z,936.43
2016-12-01T05:45:06.328Z,936.45
2016-12-01T05:45:34.080Z,936.43
2016-12-01T05:46:01.779Z,936.45
2016-12-01T05:46:29.434Z,936.42
2016-12-01T05:46:57.133Z,936.44